createdAt,value
2022-09-23T00:01:07.820Z,2.99
2022-09-23T00:03:37.252Z,3.20
2022-09-23T00:06:13.309Z,2.77
2022-09-23T00:08:41.040Z,2.88
2022-09-23T00:11:14.091Z,3.08
2022-09-23T00:13:42.889Z,3.06
2022-09-23T00:16:12.993Z,2.96
2022-09-23T00:18:40.765Z,2.91
2022-09-23T00:21:10.905Z,3.10
2022-09-23T00:23:38.723Z,3.10
2022-09-23T00:26:07.807Z,3.05
2022-09-23T00:28:35.141Z,3.00
2022-09-23T00:31:14.035Z,2.88
2022-09-23T00:33:41.034Z,2.79
2022-09-23T00:36:11.771Z,2.76
2022-09-23T00:38:39.074Z,2.47
2022-09-23T00:41:06.484Z,2.94
2022-09-23T00:43:47.726Z,2.98
2022-09-23T00:46:37.171Z,2.95
2022-09-23T00:49:18.510Z,2.78
2022-09-23T00:51:54.148Z,2.67
2022-09-23T00:54:23.947Z,2.57
2022-09-23T00:56:50.901Z,2.96
2022-09-23T00:59:17.629Z,2.87
2022-09-23T01:01:44.675Z,2.13
2022-09-23T01:04:11.560Z,2.46
2022-09-23T01:06:38.220Z,2.58
2022-09-23T01:09:04.976Z,2.11
2022-09-23T01:11:38.072Z,2.51
2022-09-23T01:14:17.083Z,2.55
2022-09-23T01:17:24.277Z,2.15
2022-09-23T01:19:50.825Z,2.39
2022-09-23T01:22:32.479Z,2.63
2022-09-23T01:25:16.534Z,2.56
2022-09-23T01:28:11.351Z,2.67
2022-09-23T01:30:44.300Z,2.63
2022-09-23T01:33:39.556Z,2.50
2022-09-23T01:36:22.679Z,2.78
2022-09-23T01:38:59.193Z,3.11
2022-09-23T01:41:34.550Z,2.92
2022-09-23T01:44:11.303Z,2.96
2022-09-23T01:46:51.687Z,2.85
2022-09-23T01:49:21.394Z,2.81
2022-09-23T01:52:23.244Z,2.84
2022-09-23T01:55:13.084Z,2.91
2022-09-23T01:58:14.903Z,2.86
2022-09-23T02:00:54.775Z,2.87
2022-09-23T02:03:28.122Z,2.82
2022-09-23T02:06:10.652Z,2.85
2022-09-23T02:08:58.278Z,2.80
2022-09-23T02:11:25.015Z,2.86
2022-09-23T02:14:19.586Z,2.76
2022-09-23T02:16:50.098Z,2.76
2022-09-23T02:19:24.652Z,2.72
2022-09-23T02:22:08.393Z,2.56
2022-09-23T02:24:38.294Z,2.41
2022-09-23T02:27:19.765Z,2.64
2022-09-23T02:29:53.978Z,2.71
2022-09-23T02:32:20.509Z,2.77
2022-09-23T02:35:03.316Z,2.67
2022-09-23T02:37:33.466Z,2.98
2022-09-23T02:40:23.574Z,3.05
2022-09-23T02:43:05.608Z,2.80
2022-09-23T02:45:33.829Z,2.81
2022-09-23T02:48:19.439Z,2.66
2022-09-23T02:50:47.780Z,2.66
2022-09-23T02:53:16.186Z,2.66
2022-09-23T02:55:43.209Z,2.47
2022-09-23T02:58:13.409Z,1.75
2022-09-23T03:00:46.060Z,2.55
2022-09-23T03:03:39.065Z,2.27
2022-09-23T03:06:47.684Z,2.47
2022-09-23T03:09:24.698Z,2.37
2022-09-23T03:12:02.606Z,2.26
2022-09-23T03:14:40.880Z,2.46
2022-09-23T03:17:19.984Z,2.30
2022-09-23T03:19:54.002Z,2.07
2022-09-23T03:22:44.059Z,2.11
2022-09-23T03:25:13.467Z,2.25
2022-09-23T03:27:42.498Z,1.97
2022-09-23T03:30:10.678Z,2.24
2022-09-23T03:32:38.432Z,2.18
2022-09-23T03:35:06.075Z,2.14
2022-09-23T03:37:39.400Z,1.87
2022-09-23T03:40:19.836Z,2.03
2022-09-23T03:42:50.204Z,1.93
2022-09-23T03:45:25.903Z,2.25
2022-09-23T03:47:52.518Z,2.01
2022-09-23T03:50:20.884Z,1.54
2022-09-23T03:52:50.466Z,1.71
2022-09-23T03:55:19.239Z,2.15
2022-09-23T03:57:46.392Z,2.03
2022-09-23T04:00:14.784Z,2.13
2022-09-23T04:02:42.032Z,1.87
2022-09-23T04:05:09.575Z,2.00
2022-09-23T04:07:36.612Z,1.77
2022-09-23T04:10:05.022Z,1.80
2022-09-23T04:12:31.708Z,1.85
2022-09-23T04:14:58.428Z,1.56
2022-09-23T04:17:25.256Z,1.28
2022-09-23T04:19:51.875Z,1.67
2022-09-23T04:22:18.508Z,1.94
2022-09-23T04:24:45.113Z,2.20
2022-09-23T04:27:11.730Z,2.09
2022-09-23T04:29:38.388Z,1.80
2022-09-23T04:32:05.143Z,1.97
2022-09-23T04:34:31.746Z,2.03
2022-09-23T04:36:58.401Z,1.72
2022-09-23T04:39:25.001Z,1.64
2022-09-23T04:41:51.644Z,1.69
2022-09-23T04:44:18.880Z,1.54
2022-09-23T04:46:49.373Z,1.83
2022-09-23T04:49:16.406Z,2.04
2022-09-23T04:51:43.721Z,2.04
2022-09-23T04:54:12.769Z,2.18
2022-09-23T04:56:42.462Z,2.16
2022-09-23T04:59:09.404Z,1.79
2022-09-23T05:01:36.755Z,2.10
2022-09-23T05:04:10.186Z,2.18
2022-09-23T05:06:37.477Z,1.97
2022-09-23T05:09:07.090Z,2.09
2022-09-23T05:11:34.615Z,2.26
2022-09-23T05:14:01.585Z,2.38
2022-09-23T05:16:28.344Z,2.22
2022-09-23T05:18:54.978Z,2.44
2022-09-23T05:21:23.880Z,2.34
2022-09-23T05:23:56.599Z,2.91
2022-09-23T05:26:28.119Z,2.72
2022-09-23T05:28:55.393Z,2.57
2022-09-23T05:31:24.700Z,2.85
2022-09-23T05:33:53.738Z,3.41
2022-09-23T05:36:22.064Z,2.17
2022-09-23T05:38:50.146Z,3.04
2022-09-23T05:41:17.871Z,3.16
2022-09-23T05:43:45.149Z,2.84
2022-09-23T05:46:14.517Z,2.64
2022-09-23T05:48:42.301Z,3.16
2022-09-23T05:51:13.059Z,2.90
2022-09-23T05:53:44.935Z,3.11
2022-09-23T05:56:17.262Z,3.53
2022-09-23T05:58:44.641Z,4.22
2022-09-23T06:01:15.244Z,4.89
2022-09-23T06:03:41.904Z,5.13
2022-09-23T06:06:14.790Z,4.44
2022-09-23T06:08:42.439Z,4.47
2022-09-23T06:11:10.244Z,4.57
2022-09-23T06:13:38.366Z,5.38
2022-09-23T06:16:10.293Z,4.69
2022-09-23T06:18:42.209Z,5.04
2022-09-23T06:21:11.757Z,5.18
2022-09-23T06:23:41.082Z,5.55
2022-09-23T06:26:10.354Z,5.74
2022-09-23T06:28:38.849Z,5.55
2022-09-23T06:31:12.853Z,6.85
2022-09-23T06:33:39.966Z,5.92
2022-09-23T06:36:07.851Z,6.63
2022-09-23T06:38:35.525Z,6.33
2022-09-23T06:41:03.284Z,6.53
2022-09-23T06:43:30.666Z,6.49
2022-09-23T06:46:00.987Z,6.61
2022-09-23T06:48:28.743Z,7.35
2022-09-23T06:50:59.714Z,7.33
2022-09-23T06:53:26.490Z,7.21
2022-09-23T06:56:02.515Z,7.33
2022-09-23T06:58:31.729Z,7.51
2022-09-23T07:01:02.939Z,7.15
2022-09-23T07:03:29.863Z,7.47
2022-09-23T07:05:56.723Z,7.83
2022-09-23T07:08:24.926Z,7.74
2022-09-23T07:10:53.091Z,8.09
2022-09-23T07:13:19.839Z,8.04
2022-09-23T07:15:54.523Z,8.84
2022-09-23T07:18:25.707Z,8.02
2022-09-23T07:20:53.428Z,8.24
2022-09-23T07:23:20.945Z,8.65
2022-09-23T07:25:50.413Z,8.54
2022-09-23T07:28:17.892Z,8.64
2022-09-23T07:30:56.036Z,8.28
2022-09-23T07:33:32.128Z,8.72
2022-09-23T07:35:59.163Z,8.71
2022-09-23T07:38:30.081Z,8.66
2022-09-23T07:41:11.410Z,8.93
2022-09-23T07:43:39.772Z,9.82
2022-09-23T07:46:10.384Z,9.39
2022-09-23T07:48:38.150Z,9.58
2022-09-23T07:51:12.969Z,9.52
2022-09-23T07:53:40.246Z,9.49
2022-09-23T07:56:07.434Z,10.16
2022-09-23T07:58:35.155Z,9.79
2022-09-23T08:01:04.280Z,10.31
2022-09-23T08:03:31.128Z,10.71
2022-09-23T08:06:13.823Z,11.48
2022-09-23T08:08:43.770Z,11.06
2022-09-23T08:11:13.392Z,10.92
2022-09-23T08:13:41.173Z,11.64
2022-09-23T08:16:08.347Z,10.76
2022-09-23T08:18:35.408Z,11.39
2022-09-23T08:21:02.318Z,10.31
2022-09-23T08:23:33.540Z,11.30
2022-09-23T08:26:03.011Z,11.48
2022-09-23T08:28:30.333Z,11.71
2022-09-23T08:30:57.087Z,11.45
2022-09-23T08:33:24.687Z,12.40
2022-09-23T08:35:52.503Z,12.47
2022-09-23T08:38:20.393Z,11.96
2022-09-23T08:40:49.609Z,11.72
2022-09-23T08:43:26.489Z,11.96
2022-09-23T08:45:55.514Z,12.29
2022-09-23T08:48:36.819Z,12.86
2022-09-23T08:51:12.491Z,12.38
2022-09-23T08:53:39.955Z,13.03
2022-09-23T08:56:19.386Z,13.39
2022-09-23T08:59:14.865Z,12.88
2022-09-23T09:01:46.209Z,13.41
2022-09-23T09:04:23.131Z,13.11
2022-09-23T09:07:24.662Z,12.90
2022-09-23T09:09:50.726Z,13.31
2022-09-23T09:12:40.920Z,13.46
2022-09-23T09:15:15.371Z,12.97
2022-09-23T09:18:01.239Z,13.97
2022-09-23T09:20:59.407Z,13.96
2022-09-23T09:23:40.124Z,13.88
2022-09-23T09:26:15.613Z,14.12
2022-09-23T09:28:48.893Z,14.25
2022-09-23T09:31:24.689Z,14.32
2022-09-23T09:34:20.293Z,14.47
2022-09-23T09:37:06.173Z,14.39
2022-09-23T09:39:35.247Z,14.06
2022-09-23T09:42:03.428Z,14.27
2022-09-23T09:44:46.787Z,14.48
2022-09-23T09:47:28.746Z,14.60
2022-09-23T09:50:11.884Z,14.59
2022-09-23T09:52:38.473Z,14.66
2022-09-23T09:55:14.423Z,14.94
2022-09-23T09:57:52.127Z,14.99
2022-09-23T10:00:26.362Z,15.31
2022-09-23T10:02:53.801Z,15.31
2022-09-23T10:05:49.705Z,15.14
2022-09-23T10:08:24.737Z,15.35
2022-09-23T10:11:13.045Z,15.36
2022-09-23T10:13:39.648Z,15.50
2022-09-23T10:16:07.414Z,15.21
2022-09-23T10:18:37.508Z,15.76
2022-09-23T10:21:09.061Z,15.67
2022-09-23T10:24:01.593Z,15.49
2022-09-23T10:26:34.452Z,15.82
2022-09-23T10:29:23.130Z,15.42
2022-09-23T10:31:53.217Z,15.75
2022-09-23T10:34:27.705Z,15.92
2022-09-23T10:37:01.799Z,15.77
2022-09-23T10:39:52.032Z,15.49
2022-09-23T10:43:02.273Z,15.48
2022-09-23T10:45:56.094Z,15.43
2022-09-23T10:48:40.781Z,15.59
2022-09-23T10:51:14.447Z,15.92
2022-09-23T10:53:59.687Z,15.84
2022-09-23T10:56:36.240Z,16.29
2022-09-23T10:59:41.173Z,16.23
2022-09-23T11:02:25.464Z,16.40
2022-09-23T11:05:18.683Z,15.98
2022-09-23T11:07:48.332Z,16.99
2022-09-23T11:10:45.517Z,17.34
2022-09-23T11:13:30.988Z,18.01
2022-09-23T11:16:24.732Z,18.38
2022-09-23T11:19:21.902Z,18.02
2022-09-23T11:22:08.308Z,18.25
2022-09-23T11:24:58.085Z,18.07
2022-09-23T11:28:01.518Z,17.66
2022-09-23T11:30:59.843Z,16.92
2022-09-23T11:33:44.834Z,17.05
2022-09-23T11:36:26.402Z,16.29
2022-09-23T11:38:56.855Z,16.09
2022-09-23T11:41:29.285Z,16.10
2022-09-23T11:44:41.198Z,16.25
2022-09-23T11:47:16.613Z,15.87
2022-09-23T11:50:17.777Z,15.65
2022-09-23T11:52:51.967Z,14.96
2022-09-23T11:55:24.422Z,15.25
2022-09-23T11:57:54.668Z,14.94
2022-09-23T12:00:23.915Z,15.07
2022-09-23T12:03:05.748Z,15.19
2022-09-23T12:05:41.773Z,14.94
2022-09-23T12:08:29.347Z,15.43
2022-09-23T12:11:06.581Z,15.70
2022-09-23T12:13:41.836Z,16.16
2022-09-23T12:16:49.071Z,16.44
2022-09-23T12:19:42.904Z,16.84
2022-09-23T12:22:26.524Z,17.11
2022-09-23T12:25:18.336Z,17.24
2022-09-23T12:27:53.086Z,17.67
2022-09-23T12:30:23.492Z,18.03
2022-09-23T12:32:50.594Z,18.04
2022-09-23T12:35:32.109Z,18.40
2022-09-23T12:38:01.187Z,18.16
2022-09-23T12:40:44.752Z,17.80
2022-09-23T12:43:33.061Z,17.60
2022-09-23T12:46:18.082Z,17.01
2022-09-23T12:49:00.593Z,16.90
2022-09-23T12:51:32.841Z,16.64
2022-09-23T12:54:05.363Z,16.77
2022-09-23T12:56:37.944Z,16.22
2022-09-23T12:59:25.919Z,15.88
2022-09-23T13:01:53.540Z,16.03
2022-09-23T13:05:14.632Z,16.02
2022-09-23T13:07:47.192Z,15.63
2022-09-23T13:10:32.844Z,15.72
2022-09-23T13:13:02.676Z,15.70
2022-09-23T13:15:30.969Z,16.22
2022-09-23T13:18:20.254Z,16.21
2022-09-23T13:20:52.055Z,16.14
2022-09-23T13:23:34.296Z,16.23
2022-09-23T13:26:09.828Z,15.85
2022-09-23T13:28:54.050Z,15.98
2022-09-23T13:31:21.379Z,15.76
2022-09-23T13:33:59.669Z,15.72
2022-09-23T13:36:27.048Z,15.86
2022-09-23T13:38:53.714Z,15.55
2022-09-23T13:41:28.570Z,16.19
2022-09-23T13:44:00.568Z,15.68
2022-09-23T13:46:40.842Z,15.93
2022-09-23T13:49:26.785Z,16.14
2022-09-23T13:51:55.190Z,15.65
2022-09-23T13:54:35.481Z,16.22
2022-09-23T13:57:03.058Z,16.20
2022-09-23T13:59:36.784Z,15.75
2022-09-23T14:02:20.077Z,16.04
2022-09-23T14:04:47.316Z,14.86
2022-09-23T14:07:16.855Z,15.69
2022-09-23T14:09:48.314Z,15.42
2022-09-23T14:12:21.943Z,16.06
2022-09-23T14:14:51.227Z,15.99
2022-09-23T14:17:23.399Z,15.40
2022-09-23T14:19:51.060Z,15.92
2022-09-23T14:22:25.130Z,16.00
2022-09-23T14:24:52.459Z,15.62
2022-09-23T14:27:30.015Z,16.13
2022-09-23T14:29:58.015Z,15.98
2022-09-23T14:32:28.260Z,15.66
2022-09-23T14:35:01.012Z,15.77
2022-09-23T14:37:55.356Z,15.86
2022-09-23T14:40:22.223Z,15.61
2022-09-23T14:43:15.780Z,15.30
2022-09-23T14:45:50.549Z,15.37
2022-09-23T14:48:23.047Z,15.39
2022-09-23T14:51:07.472Z,15.42
2022-09-23T14:53:35.505Z,15.65
2022-09-23T14:56:12.024Z,15.27
2022-09-23T14:58:54.972Z,15.59
2022-09-23T15:01:30.916Z,15.61
2022-09-23T15:04:10.052Z,15.30
2022-09-23T15:06:39.609Z,14.70
2022-09-23T15:09:07.404Z,14.82
2022-09-23T15:11:36.089Z,14.81
2022-09-23T15:14:33.114Z,14.87
2022-09-23T15:16:51.507Z,14.59
2022-09-23T15:19:21.050Z,14.54
2022-09-23T15:21:53.219Z,14.56
2022-09-23T15:24:35.985Z,14.73
2022-09-23T15:27:09.768Z,14.31
2022-09-23T15:29:36.885Z,14.31
2022-09-23T15:32:03.583Z,13.58
2022-09-23T15:34:31.785Z,14.00
2022-09-23T15:36:58.470Z,14.05
2022-09-23T15:39:35.547Z,13.87
2022-09-23T15:42:02.773Z,14.51
2022-09-23T15:44:30.330Z,14.60
2022-09-23T15:47:01.126Z,14.34
2022-09-23T15:49:31.737Z,13.81
2022-09-23T15:52:04.216Z,13.72
2022-09-23T15:54:32.502Z,13.56
2022-09-23T15:57:01.181Z,13.28
2022-09-23T15:59:28.776Z,13.14
2022-09-23T16:01:56.927Z,12.43
2022-09-23T16:04:23.757Z,12.84
2022-09-23T16:06:50.550Z,12.52
2022-09-23T16:09:17.324Z,12.53
2022-09-23T16:11:47.092Z,12.13
2022-09-23T16:14:15.814Z,12.40
2022-09-23T16:16:47.846Z,12.18
2022-09-23T16:19:16.212Z,11.83
2022-09-23T16:21:44.011Z,11.80
2022-09-23T16:24:18.755Z,11.44
2022-09-23T16:26:48.122Z,11.32
2022-09-23T16:29:15.207Z,11.18
2022-09-23T16:31:41.892Z,10.92
2022-09-23T16:34:08.595Z,10.81
2022-09-23T16:36:41.055Z,10.76
2022-09-23T16:39:10.995Z,9.92
2022-09-23T16:41:37.686Z,10.19
2022-09-23T16:44:07.417Z,9.47
2022-09-23T16:46:34.940Z,9.43
2022-09-23T16:49:01.625Z,9.97
2022-09-23T16:51:31.083Z,10.02
2022-09-23T16:53:59.376Z,9.93
2022-09-23T16:56:29.236Z,9.68
2022-09-23T16:58:56.847Z,9.50
2022-09-23T17:01:45.167Z,9.18
2022-09-23T17:04:13.256Z,9.21
2022-09-23T17:06:53.071Z,8.89
2022-09-23T17:09:21.997Z,8.93
2022-09-23T17:11:56.360Z,8.41
2022-09-23T17:14:23.100Z,8.53
2022-09-23T17:16:49.756Z,8.40
2022-09-23T17:19:16.384Z,8.29
2022-09-23T17:21:43.212Z,8.10
2022-09-23T17:24:10.306Z,8.14
2022-09-23T17:26:38.307Z,7.88
2022-09-23T17:29:05.003Z,7.81
2022-09-23T17:31:31.742Z,7.85
2022-09-23T17:33:58.395Z,7.53
2022-09-23T17:36:25.028Z,7.16
2022-09-23T17:38:54.591Z,7.43
2022-09-23T17:41:21.803Z,7.41
2022-09-23T17:43:54.430Z,7.45
2022-09-23T17:46:21.154Z,7.20
2022-09-23T17:48:47.805Z,7.36
2022-09-23T17:51:21.628Z,7.02
2022-09-23T17:53:49.580Z,7.32
2022-09-23T17:56:19.250Z,7.27
2022-09-23T17:58:47.808Z,7.23
2022-09-23T18:01:19.780Z,7.13
2022-09-23T18:03:47.450Z,7.13
2022-09-23T18:06:15.315Z,7.02
2022-09-23T18:08:43.941Z,6.93
2022-09-23T18:11:20.299Z,6.86
2022-09-23T18:13:52.218Z,6.79
2022-09-23T18:16:20.741Z,6.69
2022-09-23T18:18:52.682Z,6.63
2022-09-23T18:21:20.430Z,6.24
2022-09-23T18:23:47.567Z,5.90
2022-09-23T18:26:19.054Z,6.59
2022-09-23T18:28:45.827Z,6.66
2022-09-23T18:31:12.540Z,6.37
2022-09-23T18:33:39.265Z,6.28
2022-09-23T18:36:07.560Z,5.82
2022-09-23T18:38:34.757Z,6.15
2022-09-23T18:41:01.808Z,6.12
2022-09-23T18:43:40.550Z,6.06
2022-09-23T18:46:17.142Z,6.03
2022-09-23T18:49:02.803Z,5.91
2022-09-23T18:51:36.502Z,5.65
2022-09-23T18:54:05.950Z,5.63
2022-09-23T18:56:39.638Z,5.53
2022-09-23T18:59:07.281Z,5.54
2022-09-23T19:01:34.691Z,5.52
2022-09-23T19:04:04.739Z,5.49
2022-09-23T19:06:32.563Z,5.44
2022-09-23T19:08:59.371Z,5.21
2022-09-23T19:11:26.778Z,4.62
2022-09-23T19:13:59.239Z,5.18
2022-09-23T19:16:26.510Z,5.24
2022-09-23T19:18:53.596Z,5.13
2022-09-23T19:21:23.544Z,4.84
2022-09-23T19:23:53.818Z,5.21
2022-09-23T19:26:23.653Z,5.13
2022-09-23T19:28:57.791Z,5.06
2022-09-23T19:31:33.522Z,5.23
2022-09-23T19:34:02.592Z,5.15
2022-09-23T19:36:34.176Z,4.98
2022-09-23T19:39:06.584Z,4.65
2022-09-23T19:41:35.339Z,4.76
2022-09-23T19:44:03.285Z,4.84
2022-09-23T19:46:31.179Z,4.79
2022-09-23T19:48:58.618Z,4.47
2022-09-23T19:51:25.386Z,4.66
2022-09-23T19:53:53.376Z,4.58
2022-09-23T19:56:20.238Z,3.64
2022-09-23T19:58:49.880Z,3.48
2022-09-23T20:01:17.168Z,3.94
2022-09-23T20:03:45.043Z,3.17
2022-09-23T20:06:12.038Z,3.86
2022-09-23T20:08:39.289Z,3.37
2022-09-23T20:11:22.658Z,4.14
2022-09-23T20:14:04.981Z,3.23
2022-09-23T20:16:37.080Z,4.00
2022-09-23T20:19:04.896Z,3.83
2022-09-23T20:21:33.646Z,3.36
2022-09-23T20:24:00.975Z,4.20
2022-09-23T20:26:47.920Z,3.87
2022-09-23T20:29:14.664Z,3.77
2022-09-23T20:31:41.478Z,3.88
2022-09-23T20:34:10.306Z,3.94
2022-09-23T20:36:39.823Z,3.71
2022-09-23T20:39:07.288Z,4.10
2022-09-23T20:41:37.605Z,3.56
2022-09-23T20:44:07.497Z,4.00
2022-09-23T20:46:34.795Z,3.54
2022-09-23T20:49:02.105Z,3.77
2022-09-23T20:51:28.925Z,4.19
2022-09-23T20:53:55.680Z,3.48
2022-09-23T20:56:23.694Z,3.06
2022-09-23T20:58:52.867Z,4.04
2022-09-23T21:01:20.622Z,3.17
2022-09-23T21:03:50.050Z,3.30
2022-09-23T21:06:19.113Z,3.87
2022-09-23T21:08:46.724Z,3.35
2022-09-23T21:11:16.306Z,3.09
2022-09-23T21:13:47.824Z,3.95
2022-09-23T21:16:17.131Z,3.96
2022-09-23T21:18:44.953Z,3.04
2022-09-23T21:21:14.513Z,3.72
2022-09-23T21:23:43.438Z,3.72
2022-09-23T21:26:11.461Z,3.80
2022-09-23T21:28:43.367Z,3.78
2022-09-23T21:31:25.917Z,2.88
2022-09-23T21:34:01.985Z,2.94
2022-09-23T21:36:32.881Z,3.58
2022-09-23T21:39:01.963Z,3.53
2022-09-23T21:41:29.197Z,2.68
2022-09-23T21:43:56.510Z,2.19
2022-09-23T21:46:28.321Z,2.18
2022-09-23T21:48:57.565Z,2.12
2022-09-23T21:51:30.139Z,2.24
2022-09-23T21:53:58.423Z,2.16
2022-09-23T21:56:30.212Z,2.22
2022-09-23T21:58:58.736Z,2.09
2022-09-23T22:01:33.309Z,3.56
2022-09-23T22:04:10.529Z,2.22
2022-09-23T22:06:40.717Z,2.18
2022-09-23T22:09:09.013Z,3.38
2022-09-23T22:11:55.741Z,2.20
2022-09-23T22:14:26.133Z,2.95
2022-09-23T22:16:59.689Z,2.51
2022-09-23T22:19:46.713Z,1.75
2022-09-23T22:22:16.499Z,2.18
2022-09-23T22:24:44.704Z,2.37
2022-09-23T22:27:14.321Z,2.69
2022-09-23T22:29:59.484Z,2.28
2022-09-23T22:32:35.124Z,1.88
2022-09-23T22:35:02.701Z,3.18
2022-09-23T22:37:34.685Z,2.06
2022-09-23T22:40:05.578Z,2.66
2022-09-23T22:42:32.823Z,2.48
2022-09-23T22:44:59.545Z,3.23
2022-09-23T22:47:27.125Z,3.19
2022-09-23T22:49:55.454Z,3.10
2022-09-23T22:52:24.602Z,3.04
2022-09-23T22:54:52.432Z,2.98
2022-09-23T22:57:19.606Z,2.21
2022-09-23T22:59:48.246Z,2.41
2022-09-23T23:02:18.179Z,1.87
2022-09-23T23:04:47.181Z,2.79
2022-09-23T23:07:15.408Z,1.95
2022-09-23T23:09:42.176Z,2.66
2022-09-23T23:12:08.899Z,2.64
2022-09-23T23:14:36.122Z,2.56
2022-09-23T23:17:07.176Z,2.96
2022-09-23T23:19:35.312Z,2.79
2022-09-23T23:22:02.115Z,2.86
2022-09-23T23:24:29.002Z,2.80
2022-09-23T23:26:55.644Z,2.20
2022-09-23T23:29:23.267Z,2.41
2022-09-23T23:31:50.348Z,2.75
2022-09-23T23:34:19.788Z,2.51
2022-09-23T23:36:47.957Z,2.71
2022-09-23T23:39:14.924Z,2.56
2022-09-23T23:41:41.725Z,2.53
2022-09-23T23:44:08.750Z,2.51
2022-09-23T23:46:37.337Z,2.64
2022-09-23T23:49:04.517Z,2.62
2022-09-23T23:51:31.256Z,2.23
2022-09-23T23:53:59.651Z,2.44
2022-09-23T23:56:27.187Z,2.57
2022-09-23T23:58:55.591Z,2.45
